sensor_id;sensor_type;location;lat;lon;timestamp;P1;durP1;ratioP1;P2;durP2;ratioP2
26686;SDS011;14298;50.900;4.648;2022-08-19T00:00:03;15.83;;;14.10;;
26686;SDS011;14298;50.900;4.648;2022-08-19T00:02:35;14.40;;;12.90;;
26686;SDS011;14298;50.900;4.648;2022-08-19T00:05:04;15.03;;;13.13;;
26686;SDS011;14298;50.900;4.648;2022-08-19T00:07:33;15.70;;;14.27;;
26686;SDS011;14298;50.900;4.648;2022-08-19T00:10:02;16.27;;;14.87;;
26686;SDS011;14298;50.900;4.648;2022-08-19T00:12:32;17.93;;;15.43;;
26686;SDS011;14298;50.900;4.648;2022-08-19T00:15:04;16.50;;;14.90;;
26686;SDS011;14298;50.900;4.648;2022-08-19T00:17:33;16.40;;;14.80;;
26686;SDS011;14298;50.900;4.648;2022-08-19T00:20:02;16.10;;;14.47;;
26686;SDS011;14298;50.900;4.648;2022-08-19T00:22:31;16.37;;;14.73;;
26686;SDS011;14298;50.900;4.648;2022-08-19T00:25:00;16.27;;;14.77;;
26686;SDS011;14298;50.900;4.648;2022-08-19T00:27:28;18.07;;;15.07;;
26686;SDS011;14298;50.900;4.648;2022-08-19T00:29:56;19.43;;;16.60;;
26686;SDS011;14298;50.900;4.648;2022-08-19T00:32:25;18.13;;;16.33;;
26686;SDS011;14298;50.900;4.648;2022-08-19T00:34:54;19.83;;;16.97;;
26686;SDS011;14298;50.900;4.648;2022-08-19T00:37:23;20.00;;;18.00;;
26686;SDS011;14298;50.900;4.648;2022-08-19T00:39:52;20.53;;;18.47;;
26686;SDS011;14298;50.900;4.648;2022-08-19T00:42:22;24.67;;;19.20;;
26686;SDS011;14298;50.900;4.648;2022-08-19T00:47:41;31.03;;;25.50;;
26686;SDS011;14298;50.900;4.648;2022-08-19T00:50:11;30.10;;;25.77;;
26686;SDS011;14298;50.900;4.648;2022-08-19T00:52:43;36.70;;;29.17;;
26686;SDS011;14298;50.900;4.648;2022-08-19T00:55:16;38.70;;;30.83;;
26686;SDS011;14298;50.900;4.648;2022-08-19T00:57:50;39.33;;;31.67;;
26686;SDS011;14298;50.900;4.648;2022-08-19T01:00:24;41.77;;;32.60;;
26686;SDS011;14298;50.900;4.648;2022-08-19T01:02:53;48.77;;;37.00;;
26686;SDS011;14298;50.900;4.648;2022-08-19T01:05:24;50.17;;;36.83;;
26686;SDS011;14298;50.900;4.648;2022-08-19T01:07:58;54.47;;;39.13;;
26686;SDS011;14298;50.900;4.648;2022-08-19T01:10:29;56.20;;;40.03;;
26686;SDS011;14298;50.900;4.648;2022-08-19T01:12:59;52.17;;;39.87;;
26686;SDS011;14298;50.900;4.648;2022-08-19T01:15:31;55.30;;;40.60;;
26686;SDS011;14298;50.900;4.648;2022-08-19T01:18:03;54.13;;;41.10;;
26686;SDS011;14298;50.900;4.648;2022-08-19T01:20:35;55.40;;;40.53;;
26686;SDS011;14298;50.900;4.648;2022-08-19T01:23:04;59.90;;;43.00;;
26686;SDS011;14298;50.900;4.648;2022-08-19T01:25:54;59.80;;;43.27;;
26686;SDS011;14298;50.900;4.648;2022-08-19T01:28:18;59.50;;;43.33;;
26686;SDS011;14298;50.900;4.648;2022-08-19T01:33:38;62.33;;;43.90;;
26686;SDS011;14298;50.900;4.648;2022-08-19T01:38:55;69.30;;;47.33;;
26686;SDS011;14298;50.900;4.648;2022-08-19T01:44:14;69.13;;;45.90;;
26686;SDS011;14298;50.900;4.648;2022-08-19T01:46:42;70.53;;;47.57;;
26686;SDS011;14298;50.900;4.648;2022-08-19T01:49:11;71.13;;;46.03;;
26686;SDS011;14298;50.900;4.648;2022-08-19T01:51:40;71.80;;;46.57;;
26686;SDS011;14298;50.900;4.648;2022-08-19T01:54:09;65.67;;;44.40;;
26686;SDS011;14298;50.900;4.648;2022-08-19T01:56:39;67.90;;;43.70;;
26686;SDS011;14298;50.900;4.648;2022-08-19T01:59:12;64.90;;;43.73;;
26686;SDS011;14298;50.900;4.648;2022-08-19T02:01:42;69.70;;;44.70;;
26686;SDS011;14298;50.900;4.648;2022-08-19T02:04:10;63.33;;;42.43;;
26686;SDS011;14298;50.900;4.648;2022-08-19T02:06:39;64.93;;;43.83;;
26686;SDS011;14298;50.900;4.648;2022-08-19T02:09:07;68.73;;;43.93;;
26686;SDS011;14298;50.900;4.648;2022-08-19T02:11:36;69.17;;;43.57;;
26686;SDS011;14298;50.900;4.648;2022-08-19T02:16:53;66.97;;;43.57;;
26686;SDS011;14298;50.900;4.648;2022-08-19T02:19:21;65.63;;;43.07;;
26686;SDS011;14298;50.900;4.648;2022-08-19T02:21:50;72.93;;;44.50;;
26686;SDS011;14298;50.900;4.648;2022-08-19T02:24:18;75.37;;;45.57;;
26686;SDS011;14298;50.900;4.648;2022-08-19T02:26:47;83.87;;;49.27;;
26686;SDS011;14298;50.900;4.648;2022-08-19T02:29:15;91.77;;;50.37;;
26686;SDS011;14298;50.900;4.648;2022-08-19T02:31:43;96.40;;;51.73;;
26686;SDS011;14298;50.900;4.648;2022-08-19T02:34:12;83.60;;;47.97;;
26686;SDS011;14298;50.900;4.648;2022-08-19T02:36:40;80.43;;;46.50;;
26686;SDS011;14298;50.900;4.648;2022-08-19T02:39:09;88.60;;;48.57;;
26686;SDS011;14298;50.900;4.648;2022-08-19T02:41:37;86.77;;;48.87;;
26686;SDS011;14298;50.900;4.648;2022-08-19T02:44:05;81.77;;;47.90;;
26686;SDS011;14298;50.900;4.648;2022-08-19T02:46:34;79.77;;;46.77;;
26686;SDS011;14298;50.900;4.648;2022-08-19T02:49:04;77.93;;;44.70;;
26686;SDS011;14298;50.900;4.648;2022-08-19T02:51:35;79.53;;;46.47;;
26686;SDS011;14298;50.900;4.648;2022-08-19T02:54:05;72.37;;;44.03;;
26686;SDS011;14298;50.900;4.648;2022-08-19T02:56:36;64.70;;;40.77;;
26686;SDS011;14298;50.900;4.648;2022-08-19T02:59:06;72.37;;;43.00;;
26686;SDS011;14298;50.900;4.648;2022-08-19T03:01:36;75.50;;;43.67;;
26686;SDS011;14298;50.900;4.648;2022-08-19T03:04:07;72.60;;;42.20;;
26686;SDS011;14298;50.900;4.648;2022-08-19T03:06:37;87.97;;;46.97;;
26686;SDS011;14298;50.900;4.648;2022-08-19T03:09:07;78.70;;;45.10;;
26686;SDS011;14298;50.900;4.648;2022-08-19T03:11:36;76.67;;;43.83;;
26686;SDS011;14298;50.900;4.648;2022-08-19T03:14:05;88.63;;;46.30;;
26686;SDS011;14298;50.900;4.648;2022-08-19T03:16:40;74.20;;;44.53;;
26686;SDS011;14298;50.900;4.648;2022-08-19T03:19:09;70.03;;;42.60;;
26686;SDS011;14298;50.900;4.648;2022-08-19T03:21:38;70.17;;;41.47;;
26686;SDS011;14298;50.900;4.648;2022-08-19T03:24:07;78.00;;;44.27;;
26686;SDS011;14298;50.900;4.648;2022-08-19T03:26:40;77.63;;;43.97;;
26686;SDS011;14298;50.900;4.648;2022-08-19T03:29:13;68.23;;;41.23;;
26686;SDS011;14298;50.900;4.648;2022-08-19T03:31:43;67.30;;;40.90;;
26686;SDS011;14298;50.900;4.648;2022-08-19T03:34:13;63.50;;;39.80;;
26686;SDS011;14298;50.900;4.648;2022-08-19T03:36:44;58.53;;;37.87;;
26686;SDS011;14298;50.900;4.648;2022-08-19T03:39:13;67.27;;;40.23;;
26686;SDS011;14298;50.900;4.648;2022-08-19T03:41:44;60.03;;;36.63;;
26686;SDS011;14298;50.900;4.648;2022-08-19T03:44:17;62.50;;;38.43;;
26686;SDS011;14298;50.900;4.648;2022-08-19T03:46:51;61.70;;;37.33;;
26686;SDS011;14298;50.900;4.648;2022-08-19T03:49:22;57.17;;;35.20;;
26686;SDS011;14298;50.900;4.648;2022-08-19T03:51:52;49.00;;;32.77;;
26686;SDS011;14298;50.900;4.648;2022-08-19T03:54:21;54.73;;;33.60;;
26686;SDS011;14298;50.900;4.648;2022-08-19T03:56:52;50.10;;;32.73;;
26686;SDS011;14298;50.900;4.648;2022-08-19T03:59:31;53.33;;;33.10;;
26686;SDS011;14298;50.900;4.648;2022-08-19T04:01:57;47.37;;;30.73;;
26686;SDS011;14298;50.900;4.648;2022-08-19T04:04:28;52.30;;;33.30;;
26686;SDS011;14298;50.900;4.648;2022-08-19T04:09:47;49.03;;;32.57;;
26686;SDS011;14298;50.900;4.648;2022-08-19T04:12:17;44.77;;;30.97;;
26686;SDS011;14298;50.900;4.648;2022-08-19T04:14:47;45.47;;;30.57;;
26686;SDS011;14298;50.900;4.648;2022-08-19T04:17:15;48.50;;;32.77;;
26686;SDS011;14298;50.900;4.648;2022-08-19T04:19:43;49.63;;;31.30;;
26686;SDS011;14298;50.900;4.648;2022-08-19T04:22:12;48.17;;;30.00;;
26686;SDS011;14298;50.900;4.648;2022-08-19T04:27:28;43.77;;;29.33;;
26686;SDS011;14298;50.900;4.648;2022-08-19T04:29:57;46.93;;;29.83;;
26686;SDS011;14298;50.900;4.648;2022-08-19T04:32:26;42.90;;;29.73;;
26686;SDS011;14298;50.900;4.648;2022-08-19T04:34:54;46.43;;;29.67;;
26686;SDS011;14298;50.900;4.648;2022-08-19T04:37:24;45.83;;;29.83;;
26686;SDS011;14298;50.900;4.648;2022-08-19T04:39:53;43.83;;;27.27;;
26686;SDS011;14298;50.900;4.648;2022-08-19T04:42:39;41.60;;;27.70;;
26686;SDS011;14298;50.900;4.648;2022-08-19T04:45:13;41.00;;;27.50;;
26686;SDS011;14298;50.900;4.648;2022-08-19T04:47:41;39.90;;;26.77;;
26686;SDS011;14298;50.900;4.648;2022-08-19T04:50:11;46.97;;;27.43;;
26686;SDS011;14298;50.900;4.648;2022-08-19T04:52:39;39.27;;;25.90;;
26686;SDS011;14298;50.900;4.648;2022-08-19T04:55:11;41.77;;;26.70;;
26686;SDS011;14298;50.900;4.648;2022-08-19T04:57:40;37.00;;;24.87;;
26686;SDS011;14298;50.900;4.648;2022-08-19T05:00:08;39.33;;;26.03;;
26686;SDS011;14298;50.900;4.648;2022-08-19T05:02:38;43.10;;;26.50;;
26686;SDS011;14298;50.900;4.648;2022-08-19T05:05:07;38.90;;;24.23;;
26686;SDS011;14298;50.900;4.648;2022-08-19T05:07:36;34.57;;;25.03;;
26686;SDS011;14298;50.900;4.648;2022-08-19T05:10:04;42.37;;;25.53;;
26686;SDS011;14298;50.900;4.648;2022-08-19T05:12:33;37.67;;;24.87;;
26686;SDS011;14298;50.900;4.648;2022-08-19T05:15:07;36.37;;;23.93;;
26686;SDS011;14298;50.900;4.648;2022-08-19T05:17:34;34.60;;;23.33;;
26686;SDS011;14298;50.900;4.648;2022-08-19T05:20:04;36.23;;;23.90;;
26686;SDS011;14298;50.900;4.648;2022-08-19T05:22:52;32.33;;;24.50;;
26686;SDS011;14298;50.900;4.648;2022-08-19T05:28:08;35.87;;;24.27;;
26686;SDS011;14298;50.900;4.648;2022-08-19T05:30:37;34.33;;;23.73;;
26686;SDS011;14298;50.900;4.648;2022-08-19T05:33:07;35.23;;;24.80;;
26686;SDS011;14298;50.900;4.648;2022-08-19T05:35:37;33.83;;;23.33;;
26686;SDS011;14298;50.900;4.648;2022-08-19T05:38:07;33.90;;;22.80;;
26686;SDS011;14298;50.900;4.648;2022-08-19T05:40:35;31.60;;;21.40;;
26686;SDS011;14298;50.900;4.648;2022-08-19T05:43:06;32.27;;;22.40;;
26686;SDS011;14298;50.900;4.648;2022-08-19T05:45:39;28.37;;;20.60;;
26686;SDS011;14298;50.900;4.648;2022-08-19T05:48:11;31.93;;;21.47;;
26686;SDS011;14298;50.900;4.648;2022-08-19T05:50:41;30.47;;;21.50;;
26686;SDS011;14298;50.900;4.648;2022-08-19T05:53:12;29.37;;;21.90;;
26686;SDS011;14298;50.900;4.648;2022-08-19T05:55:42;29.83;;;19.77;;
26686;SDS011;14298;50.900;4.648;2022-08-19T05:58:10;27.53;;;19.03;;
26686;SDS011;14298;50.900;4.648;2022-08-19T06:00:39;25.20;;;19.60;;
26686;SDS011;14298;50.900;4.648;2022-08-19T06:03:08;29.43;;;19.33;;
26686;SDS011;14298;50.900;4.648;2022-08-19T06:05:37;24.13;;;17.67;;
26686;SDS011;14298;50.900;4.648;2022-08-19T06:08:05;27.60;;;17.87;;
26686;SDS011;14298;50.900;4.648;2022-08-19T06:10:34;23.80;;;16.87;;
26686;SDS011;14298;50.900;4.648;2022-08-19T06:13:03;26.80;;;17.60;;
26686;SDS011;14298;50.900;4.648;2022-08-19T06:15:32;21.87;;;16.30;;
26686;SDS011;14298;50.900;4.648;2022-08-19T06:18:00;22.53;;;17.17;;
26686;SDS011;14298;50.900;4.648;2022-08-19T06:20:28;24.33;;;15.67;;
26686;SDS011;14298;50.900;4.648;2022-08-19T06:22:58;21.03;;;15.33;;
26686;SDS011;14298;50.900;4.648;2022-08-19T06:25:27;20.87;;;16.00;;
26686;SDS011;14298;50.900;4.648;2022-08-19T06:27:55;20.07;;;14.13;;
26686;SDS011;14298;50.900;4.648;2022-08-19T06:30:23;18.80;;;14.80;;
26686;SDS011;14298;50.900;4.648;2022-08-19T06:32:52;18.57;;;13.83;;
26686;SDS011;14298;50.900;4.648;2022-08-19T06:35:20;22.53;;;15.13;;
26686;SDS011;14298;50.900;4.648;2022-08-19T06:37:49;21.07;;;14.93;;
26686;SDS011;14298;50.900;4.648;2022-08-19T06:40:20;23.83;;;15.50;;
26686;SDS011;14298;50.900;4.648;2022-08-19T06:42:48;19.47;;;14.70;;
26686;SDS011;14298;50.900;4.648;2022-08-19T06:45:17;22.97;;;15.73;;
26686;SDS011;14298;50.900;4.648;2022-08-19T06:47:46;21.30;;;14.23;;
26686;SDS011;14298;50.900;4.648;2022-08-19T06:50:15;22.60;;;14.03;;
26686;SDS011;14298;50.900;4.648;2022-08-19T06:52:43;19.07;;;13.63;;
26686;SDS011;14298;50.900;4.648;2022-08-19T06:55:13;17.43;;;12.17;;
26686;SDS011;14298;50.900;4.648;2022-08-19T06:57:42;17.23;;;12.30;;
26686;SDS011;14298;50.900;4.648;2022-08-19T07:00:12;18.73;;;11.80;;
26686;SDS011;14298;50.900;4.648;2022-08-19T07:02:41;12.43;;;10.57;;
26686;SDS011;14298;50.900;4.648;2022-08-19T07:05:10;11.93;;;10.27;;
26686;SDS011;14298;50.900;4.648;2022-08-19T07:07:39;13.63;;;10.23;;
26686;SDS011;14298;50.900;4.648;2022-08-19T07:10:09;12.17;;;10.17;;
26686;SDS011;14298;50.900;4.648;2022-08-19T07:12:38;11.20;;;8.87;;
26686;SDS011;14298;50.900;4.648;2022-08-19T07:15:07;11.10;;;8.67;;
26686;SDS011;14298;50.900;4.648;2022-08-19T07:17:37;9.87;;;8.23;;
26686;SDS011;14298;50.900;4.648;2022-08-19T07:20:06;12.37;;;7.47;;
26686;SDS011;14298;50.900;4.648;2022-08-19T07:22:36;11.77;;;7.97;;
26686;SDS011;14298;50.900;4.648;2022-08-19T07:25:05;10.93;;;6.90;;
26686;SDS011;14298;50.900;4.648;2022-08-19T07:27:36;10.05;;;7.28;;
26686;SDS011;14298;50.900;4.648;2022-08-19T07:30:05;11.13;;;6.97;;
26686;SDS011;14298;50.900;4.648;2022-08-19T07:32:34;10.13;;;6.40;;
26686;SDS011;14298;50.900;4.648;2022-08-19T07:35:02;6.63;;;5.63;;
26686;SDS011;14298;50.900;4.648;2022-08-19T07:37:32;9.45;;;5.37;;
26686;SDS011;14298;50.900;4.648;2022-08-19T07:40:07;10.60;;;6.10;;
26686;SDS011;14298;50.900;4.648;2022-08-19T07:42:33;6.93;;;5.50;;
26686;SDS011;14298;50.900;4.648;2022-08-19T07:45:02;8.03;;;5.00;;
26686;SDS011;14298;50.900;4.648;2022-08-19T07:47:31;8.28;;;5.65;;
26686;SDS011;14298;50.900;4.648;2022-08-19T07:50:00;8.00;;;4.73;;
26686;SDS011;14298;50.900;4.648;2022-08-19T07:55:19;6.47;;;4.37;;
26686;SDS011;14298;50.900;4.648;2022-08-19T07:57:50;5.83;;;4.15;;
26686;SDS011;14298;50.900;4.648;2022-08-19T08:00:20;8.53;;;3.92;;
26686;SDS011;14298;50.900;4.648;2022-08-19T08:02:48;6.70;;;4.30;;
26686;SDS011;14298;50.900;4.648;2022-08-19T08:05:16;10.23;;;4.33;;
26686;SDS011;14298;50.900;4.648;2022-08-19T08:08:03;6.95;;;4.12;;
26686;SDS011;14298;50.900;4.648;2022-08-19T08:10:51;8.43;;;3.62;;
26686;SDS011;14298;50.900;4.648;2022-08-19T08:13:19;5.80;;;3.83;;
26686;SDS011;14298;50.900;4.648;2022-08-19T08:15:47;7.40;;;3.97;;
26686;SDS011;14298;50.900;4.648;2022-08-19T08:18:16;11.87;;;5.27;;
26686;SDS011;14298;50.900;4.648;2022-08-19T08:20:45;6.47;;;4.58;;
26686;SDS011;14298;50.900;4.648;2022-08-19T08:23:13;7.75;;;4.70;;
26686;SDS011;14298;50.900;4.648;2022-08-19T08:25:56;8.30;;;4.75;;
26686;SDS011;14298;50.900;4.648;2022-08-19T08:28:26;8.15;;;4.75;;
26686;SDS011;14298;50.900;4.648;2022-08-19T08:30:56;7.47;;;5.13;;
26686;SDS011;14298;50.900;4.648;2022-08-19T08:33:26;5.42;;;4.47;;
26686;SDS011;14298;50.900;4.648;2022-08-19T08:35:56;7.35;;;4.97;;
26686;SDS011;14298;50.900;4.648;2022-08-19T08:38:25;7.12;;;4.12;;
26686;SDS011;14298;50.900;4.648;2022-08-19T08:40:57;7.37;;;4.72;;
26686;SDS011;14298;50.900;4.648;2022-08-19T08:43:28;10.60;;;4.80;;
26686;SDS011;14298;50.900;4.648;2022-08-19T08:46:08;7.00;;;4.50;;
26686;SDS011;14298;50.900;4.648;2022-08-19T08:48:48;5.55;;;4.12;;
26686;SDS011;14298;50.900;4.648;2022-08-19T08:51:22;6.47;;;3.80;;
26686;SDS011;14298;50.900;4.648;2022-08-19T08:53:59;4.72;;;3.60;;
26686;SDS011;14298;50.900;4.648;2022-08-19T08:56:30;6.30;;;4.05;;
26686;SDS011;14298;50.900;4.648;2022-08-19T08:59:04;4.53;;;3.45;;
26686;SDS011;14298;50.900;4.648;2022-08-19T09:01:34;10.48;;;4.10;;
26686;SDS011;14298;50.900;4.648;2022-08-19T09:04:09;9.53;;;3.85;;
26686;SDS011;14298;50.900;4.648;2022-08-19T09:09:32;6.42;;;4.22;;
26686;SDS011;14298;50.900;4.648;2022-08-19T09:14:45;7.47;;;4.47;;
26686;SDS011;14298;50.900;4.648;2022-08-19T09:17:14;7.60;;;3.67;;
26686;SDS011;14298;50.900;4.648;2022-08-19T09:22:20;6.70;;;4.05;;
26686;SDS011;14298;50.900;4.648;2022-08-19T09:24:49;5.60;;;3.98;;
26686;SDS011;14298;50.900;4.648;2022-08-19T09:27:21;5.10;;;3.52;;
26686;SDS011;14298;50.900;4.648;2022-08-19T09:29:51;4.95;;;3.77;;
26686;SDS011;14298;50.900;4.648;2022-08-19T09:32:21;7.95;;;3.83;;
26686;SDS011;14298;50.900;4.648;2022-08-19T09:34:50;6.70;;;3.58;;
26686;SDS011;14298;50.900;4.648;2022-08-19T09:37:20;5.35;;;3.40;;
26686;SDS011;14298;50.900;4.648;2022-08-19T09:39:49;8.53;;;3.87;;
26686;SDS011;14298;50.900;4.648;2022-08-19T09:42:19;5.78;;;3.85;;
26686;SDS011;14298;50.900;4.648;2022-08-19T09:44:48;6.45;;;4.58;;
26686;SDS011;14298;50.900;4.648;2022-08-19T09:47:16;6.28;;;4.22;;
26686;SDS011;14298;50.900;4.648;2022-08-19T09:49:44;6.05;;;4.35;;
26686;SDS011;14298;50.900;4.648;2022-08-19T09:52:14;7.80;;;4.40;;
26686;SDS011;14298;50.900;4.648;2022-08-19T09:54:42;7.25;;;4.58;;
26686;SDS011;14298;50.900;4.648;2022-08-19T09:57:11;6.03;;;5.05;;
26686;SDS011;14298;50.900;4.648;2022-08-19T09:59:40;6.42;;;4.20;;
26686;SDS011;14298;50.900;4.648;2022-08-19T10:02:09;8.57;;;4.17;;
26686;SDS011;14298;50.900;4.648;2022-08-19T10:04:38;6.75;;;4.55;;
26686;SDS011;14298;50.900;4.648;2022-08-19T10:07:24;7.57;;;4.63;;
26686;SDS011;14298;50.900;4.648;2022-08-19T10:09:53;10.78;;;4.28;;
26686;SDS011;14298;50.900;4.648;2022-08-19T10:12:21;10.73;;;5.40;;
26686;SDS011;14298;50.900;4.648;2022-08-19T10:14:49;7.70;;;3.95;;
26686;SDS011;14298;50.900;4.648;2022-08-19T10:20:07;6.72;;;3.75;;
26686;SDS011;14298;50.900;4.648;2022-08-19T10:22:36;4.60;;;3.87;;
26686;SDS011;14298;50.900;4.648;2022-08-19T10:25:05;5.85;;;3.92;;
26686;SDS011;14298;50.900;4.648;2022-08-19T10:27:33;6.40;;;3.90;;
26686;SDS011;14298;50.900;4.648;2022-08-19T10:30:03;7.55;;;3.67;;
26686;SDS011;14298;50.900;4.648;2022-08-19T10:32:32;9.38;;;4.30;;
26686;SDS011;14298;50.900;4.648;2022-08-19T10:35:02;7.67;;;4.37;;
26686;SDS011;14298;50.900;4.648;2022-08-19T10:37:33;4.95;;;4.28;;
26686;SDS011;14298;50.900;4.648;2022-08-19T10:40:04;4.78;;;3.72;;
26686;SDS011;14298;50.900;4.648;2022-08-19T10:42:34;6.50;;;3.80;;
26686;SDS011;14298;50.900;4.648;2022-08-19T10:45:03;6.00;;;3.87;;
26686;SDS011;14298;50.900;4.648;2022-08-19T10:47:33;5.72;;;3.92;;
26686;SDS011;14298;50.900;4.648;2022-08-19T10:50:02;8.55;;;4.08;;
26686;SDS011;14298;50.900;4.648;2022-08-19T10:52:49;5.87;;;3.62;;
26686;SDS011;14298;50.900;4.648;2022-08-19T10:55:23;7.47;;;4.12;;
26686;SDS011;14298;50.900;4.648;2022-08-19T10:58:11;7.28;;;4.10;;
26686;SDS011;14298;50.900;4.648;2022-08-19T11:00:41;5.80;;;3.72;;
26686;SDS011;14298;50.900;4.648;2022-08-19T11:03:10;4.17;;;3.35;;
26686;SDS011;14298;50.900;4.648;2022-08-19T11:05:39;5.90;;;3.45;;
26686;SDS011;14298;50.900;4.648;2022-08-19T11:08:08;3.67;;;2.87;;
26686;SDS011;14298;50.900;4.648;2022-08-19T11:10:41;4.65;;;2.70;;
26686;SDS011;14298;50.900;4.648;2022-08-19T11:13:11;3.25;;;2.70;;
26686;SDS011;14298;50.900;4.648;2022-08-19T11:15:39;5.47;;;2.25;;
26686;SDS011;14298;50.900;4.648;2022-08-19T11:18:08;4.62;;;2.47;;
26686;SDS011;14298;50.900;4.648;2022-08-19T11:20:36;2.80;;;2.60;;
26686;SDS011;14298;50.900;4.648;2022-08-19T11:23:04;4.75;;;2.85;;
26686;SDS011;14298;50.900;4.648;2022-08-19T11:25:33;5.05;;;2.92;;
26686;SDS011;14298;50.900;4.648;2022-08-19T11:28:01;4.87;;;3.00;;
26686;SDS011;14298;50.900;4.648;2022-08-19T11:30:31;4.37;;;3.15;;
26686;SDS011;14298;50.900;4.648;2022-08-19T11:33:00;5.87;;;2.72;;
26686;SDS011;14298;50.900;4.648;2022-08-19T11:35:29;3.30;;;2.50;;
26686;SDS011;14298;50.900;4.648;2022-08-19T11:37:57;3.02;;;2.60;;
26686;SDS011;14298;50.900;4.648;2022-08-19T11:40:27;3.95;;;3.08;;
26686;SDS011;14298;50.900;4.648;2022-08-19T11:42:55;6.30;;;2.85;;
26686;SDS011;14298;50.900;4.648;2022-08-19T11:45:24;4.73;;;3.73;;
26686;SDS011;14298;50.900;4.648;2022-08-19T11:47:55;6.08;;;3.75;;
26686;SDS011;14298;50.900;4.648;2022-08-19T11:50:23;6.77;;;4.10;;
26686;SDS011;14298;50.900;4.648;2022-08-19T11:52:55;5.85;;;4.62;;
26686;SDS011;14298;50.900;4.648;2022-08-19T11:55:24;6.05;;;5.00;;
26686;SDS011;14298;50.900;4.648;2022-08-19T11:57:52;6.37;;;4.65;;
26686;SDS011;14298;50.900;4.648;2022-08-19T12:00:21;6.28;;;4.95;;
26686;SDS011;14298;50.900;4.648;2022-08-19T12:02:49;7.00;;;4.97;;
26686;SDS011;14298;50.900;4.648;2022-08-19T12:05:17;5.08;;;4.50;;
26686;SDS011;14298;50.900;4.648;2022-08-19T12:07:46;5.67;;;4.70;;
26686;SDS011;14298;50.900;4.648;2022-08-19T12:10:14;5.47;;;4.30;;
26686;SDS011;14298;50.900;4.648;2022-08-19T12:15:30;5.92;;;4.45;;
26686;SDS011;14298;50.900;4.648;2022-08-19T12:18:04;7.50;;;4.50;;
26686;SDS011;14298;50.900;4.648;2022-08-19T12:20:40;6.40;;;4.80;;
26686;SDS011;14298;50.900;4.648;2022-08-19T12:23:06;6.37;;;5.42;;
26686;SDS011;14298;50.900;4.648;2022-08-19T12:25:37;5.87;;;5.00;;
26686;SDS011;14298;50.900;4.648;2022-08-19T12:28:07;10.38;;;6.80;;
26686;SDS011;14298;50.900;4.648;2022-08-19T12:30:37;8.85;;;6.20;;
26686;SDS011;14298;50.900;4.648;2022-08-19T12:33:05;7.30;;;6.22;;
26686;SDS011;14298;50.900;4.648;2022-08-19T12:35:34;10.63;;;6.03;;
26686;SDS011;14298;50.900;4.648;2022-08-19T12:38:02;8.08;;;5.85;;
26686;SDS011;14298;50.900;4.648;2022-08-19T12:40:32;7.00;;;6.30;;
26686;SDS011;14298;50.900;4.648;2022-08-19T12:43:00;10.80;;;5.72;;
26686;SDS011;14298;50.900;4.648;2022-08-19T12:45:28;6.40;;;5.67;;
26686;SDS011;14298;50.900;4.648;2022-08-19T12:47:57;8.93;;;6.10;;
26686;SDS011;14298;50.900;4.648;2022-08-19T12:50:25;5.92;;;5.33;;
26686;SDS011;14298;50.900;4.648;2022-08-19T12:52:54;6.15;;;4.87;;
26686;SDS011;14298;50.900;4.648;2022-08-19T12:55:23;6.15;;;4.97;;
26686;SDS011;14298;50.900;4.648;2022-08-19T12:57:53;6.17;;;5.35;;
26686;SDS011;14298;50.900;4.648;2022-08-19T13:00:23;5.85;;;5.33;;
26686;SDS011;14298;50.900;4.648;2022-08-19T13:02:51;11.78;;;5.30;;
26686;SDS011;14298;50.900;4.648;2022-08-19T13:05:21;5.08;;;4.58;;
26686;SDS011;14298;50.900;4.648;2022-08-19T13:07:52;5.33;;;4.53;;
26686;SDS011;14298;50.900;4.648;2022-08-19T13:10:27;5.90;;;4.35;;
26686;SDS011;14298;50.900;4.648;2022-08-19T13:12:58;5.15;;;4.65;;
26686;SDS011;14298;50.900;4.648;2022-08-19T13:15:28;7.87;;;3.77;;
26686;SDS011;14298;50.900;4.648;2022-08-19T13:17:57;4.60;;;3.70;;
26686;SDS011;14298;50.900;4.648;2022-08-19T13:20:26;6.22;;;4.37;;
26686;SDS011;14298;50.900;4.648;2022-08-19T13:22:55;6.80;;;4.35;;
26686;SDS011;14298;50.900;4.648;2022-08-19T13:25:24;4.90;;;3.92;;
26686;SDS011;14298;50.900;4.648;2022-08-19T13:27:53;5.08;;;4.62;;
26686;SDS011;14298;50.900;4.648;2022-08-19T13:30:21;7.53;;;3.55;;
26686;SDS011;14298;50.900;4.648;2022-08-19T13:33:08;8.05;;;3.90;;
26686;SDS011;14298;50.900;4.648;2022-08-19T13:35:49;6.55;;;3.27;;
26686;SDS011;14298;50.900;4.648;2022-08-19T13:38:21;10.58;;;3.27;;
26686;SDS011;14298;50.900;4.648;2022-08-19T13:40:51;4.53;;;3.17;;
26686;SDS011;14298;50.900;4.648;2022-08-19T13:43:21;4.72;;;2.85;;
26686;SDS011;14298;50.900;4.648;2022-08-19T13:45:52;4.75;;;3.42;;
26686;SDS011;14298;50.900;4.648;2022-08-19T13:48:22;2.90;;;2.37;;
26686;SDS011;14298;50.900;4.648;2022-08-19T13:50:53;2.45;;;2.17;;
26686;SDS011;14298;50.900;4.648;2022-08-19T13:53:21;3.20;;;2.40;;
26686;SDS011;14298;50.900;4.648;2022-08-19T13:55:50;2.87;;;1.95;;
26686;SDS011;14298;50.900;4.648;2022-08-19T13:58:20;2.67;;;1.50;;
26686;SDS011;14298;50.900;4.648;2022-08-19T14:00:49;5.70;;;1.47;;
26686;SDS011;14298;50.900;4.648;2022-08-19T14:03:17;3.22;;;1.40;;
26686;SDS011;14298;50.900;4.648;2022-08-19T14:05:45;3.25;;;1.87;;
26686;SDS011;14298;50.900;4.648;2022-08-19T14:08:14;3.30;;;1.15;;
26686;SDS011;14298;50.900;4.648;2022-08-19T14:10:42;5.58;;;1.87;;
26686;SDS011;14298;50.900;4.648;2022-08-19T14:13:16;3.00;;;1.67;;
26686;SDS011;14298;50.900;4.648;2022-08-19T14:15:46;1.90;;;1.60;;
26686;SDS011;14298;50.900;4.648;2022-08-19T14:18:15;7.20;;;1.42;;
26686;SDS011;14298;50.900;4.648;2022-08-19T14:20:45;1.62;;;1.20;;
26686;SDS011;14298;50.900;4.648;2022-08-19T14:23:13;1.67;;;1.30;;
26686;SDS011;14298;50.900;4.648;2022-08-19T14:25:42;1.90;;;1.25;;
26686;SDS011;14298;50.900;4.648;2022-08-19T14:28:11;6.03;;;1.30;;
26686;SDS011;14298;50.900;4.648;2022-08-19T14:30:39;6.25;;;1.40;;
26686;SDS011;14298;50.900;4.648;2022-08-19T14:33:07;1.15;;;1.15;;
26686;SDS011;14298;50.900;4.648;2022-08-19T14:35:36;2.47;;;1.10;;
26686;SDS011;14298;50.900;4.648;2022-08-19T14:38:05;6.83;;;1.10;;
26686;SDS011;14298;50.900;4.648;2022-08-19T14:40:35;1.20;;;1.10;;
26686;SDS011;14298;50.900;4.648;2022-08-19T14:43:04;3.72;;;1.37;;
26686;SDS011;14298;50.900;4.648;2022-08-19T14:45:34;3.60;;;1.27;;
26686;SDS011;14298;50.900;4.648;2022-08-19T14:48:04;1.95;;;1.40;;
26686;SDS011;14298;50.900;4.648;2022-08-19T14:50:33;5.00;;;1.62;;
26686;SDS011;14298;50.900;4.648;2022-08-19T14:53:05;7.25;;;1.87;;
26686;SDS011;14298;50.900;4.648;2022-08-19T14:55:35;4.42;;;1.65;;
26686;SDS011;14298;50.900;4.648;2022-08-19T14:58:06;3.60;;;1.50;;
26686;SDS011;14298;50.900;4.648;2022-08-19T15:00:33;9.85;;;2.22;;
26686;SDS011;14298;50.900;4.648;2022-08-19T15:03:02;6.40;;;3.08;;
26686;SDS011;14298;50.900;4.648;2022-08-19T15:05:31;13.70;;;3.40;;
26686;SDS011;14298;50.900;4.648;2022-08-19T15:08:02;9.37;;;3.93;;
26686;SDS011;14298;50.900;4.648;2022-08-19T15:10:30;3.57;;;2.70;;
26686;SDS011;14298;50.900;4.648;2022-08-19T15:12:59;2.60;;;2.40;;
26686;SDS011;14298;50.900;4.648;2022-08-19T15:15:28;3.40;;;2.30;;
26686;SDS011;14298;50.900;4.648;2022-08-19T15:17:56;4.00;;;2.87;;
26686;SDS011;14298;50.900;4.648;2022-08-19T15:20:26;2.30;;;2.02;;
26686;SDS011;14298;50.900;4.648;2022-08-19T15:22:55;3.13;;;2.00;;
26686;SDS011;14298;50.900;4.648;2022-08-19T15:25:25;3.50;;;1.83;;
26686;SDS011;14298;50.900;4.648;2022-08-19T15:27:55;1.00;;;0.80;;
26686;SDS011;14298;50.900;4.648;2022-08-19T15:30:24;1.40;;;0.93;;